createdAt,value
2023-03-23T15:59:01.330Z,4.60
2023-03-23T16:01:49.719Z,4.60
2023-03-23T16:04:36.402Z,5.00
2023-03-23T16:07:24.376Z,5.13
2023-03-23T16:10:17.083Z,5.77
2023-03-23T16:13:05.279Z,4.70
2023-03-23T16:15:51.721Z,4.97
2023-03-23T16:18:39.439Z,5.70
2023-03-23T16:21:26.263Z,6.83
2023-03-23T16:24:12.859Z,6.83
2023-03-23T16:26:59.049Z,7.40
2023-03-23T16:30:02.364Z,6.30
2023-03-23T16:32:51.516Z,7.60
2023-03-23T16:35:39.312Z,8.27
2023-03-23T16:38:25.745Z,7.30
2023-03-23T16:41:11.971Z,6.27
2023-03-23T16:43:59.118Z,11.17
2023-03-23T16:46:45.575Z,20.73
2023-03-23T16:49:31.900Z,17.77
2023-03-23T16:52:19.624Z,12.63
2023-03-23T16:55:06.331Z,11.00
2023-03-23T16:57:54.182Z,9.30
2023-03-23T17:00:43.282Z,14.10
2023-03-23T17:03:29.767Z,17.97
2023-03-23T17:06:16.488Z,20.27
2023-03-23T17:09:04.633Z,13.67
2023-03-23T17:11:51.300Z,35.30
2023-03-23T17:14:37.756Z,42.37
2023-03-23T17:17:24.592Z,26.87
2023-03-23T17:20:12.101Z,29.20
2023-03-23T17:22:59.677Z,22.93
2023-03-23T17:25:47.632Z,21.43
2023-03-23T17:28:34.122Z,16.03
2023-03-23T17:31:20.822Z,16.73
2023-03-23T17:34:07.502Z,16.93
2023-03-23T17:36:53.964Z,17.93
2023-03-23T17:39:43.125Z,13.03
2023-03-23T17:42:31.841Z,14.07
2023-03-23T17:45:18.380Z,9.57
2023-03-23T17:48:07.993Z,11.27
2023-03-23T17:50:57.609Z,10.17
2023-03-23T17:53:43.954Z,19.57
2023-03-23T17:56:30.218Z,17.70
2023-03-23T17:59:17.996Z,17.93
2023-03-23T18:02:04.405Z,13.87
2023-03-23T18:04:51.274Z,25.17
2023-03-23T18:07:38.084Z,24.53
2023-03-23T18:10:24.754Z,27.73
2023-03-23T18:13:11.332Z,20.73
2023-03-23T18:15:59.198Z,21.47
2023-03-23T18:18:47.179Z,16.77
2023-03-23T18:21:33.626Z,11.80
2023-03-23T18:24:20.754Z,11.93
2023-03-23T18:27:07.416Z,24.30
2023-03-23T18:29:54.149Z,19.43
2023-03-23T18:32:42.690Z,18.77
2023-03-23T18:35:29.356Z,19.30
2023-03-23T18:38:16.320Z,19.67
2023-03-23T18:41:02.900Z,19.43
2023-03-23T18:43:49.356Z,13.77
2023-03-23T18:46:37.432Z,15.73
2023-03-23T18:49:25.473Z,17.73
2023-03-23T18:52:11.910Z,14.77
2023-03-23T18:54:58.296Z,18.40
2023-03-23T18:57:44.620Z,17.53
2023-03-23T19:00:30.858Z,15.20
2023-03-23T19:03:17.400Z,21.73
2023-03-23T19:06:06.153Z,25.83
2023-03-23T19:08:53.576Z,26.50
2023-03-23T19:11:40.087Z,24.03
2023-03-23T19:14:26.358Z,17.40
2023-03-23T19:17:12.821Z,12.03
2023-03-23T19:19:59.441Z,12.07
2023-03-23T19:22:47.074Z,12.17
2023-03-23T19:25:33.510Z,13.57
2023-03-23T19:29:05.449Z,15.83
2023-03-23T19:31:26.986Z,18.93
2023-03-23T19:34:13.636Z,16.67
2023-03-23T19:37:05.533Z,14.80
2023-03-23T19:39:55.774Z,13.47
2023-03-23T19:42:42.656Z,12.27
2023-03-23T19:45:28.793Z,8.13
2023-03-23T19:48:16.106Z,6.43
2023-03-23T19:51:02.609Z,7.00
2023-03-23T19:53:49.107Z,5.67
2023-03-23T19:56:37.217Z,6.27
2023-03-23T19:59:23.777Z,5.90
2023-03-23T20:02:11.493Z,5.03
2023-03-23T20:04:57.940Z,5.47
2023-03-23T20:07:48.607Z,6.07
2023-03-23T20:10:38.635Z,6.50
2023-03-23T20:13:27.717Z,6.90
2023-03-23T20:16:14.077Z,6.47
2023-03-23T20:19:00.698Z,5.50
2023-03-23T20:21:47.600Z,4.87
2023-03-23T20:24:33.703Z,5.50
2023-03-23T20:27:20.818Z,7.27
2023-03-23T20:30:09.572Z,10.00
2023-03-23T20:32:58.225Z,9.13
2023-03-23T20:35:44.903Z,8.13
2023-03-23T20:38:35.281Z,8.13
2023-03-23T20:41:21.778Z,8.10
2023-03-23T20:44:09.275Z,6.73
2023-03-23T20:46:57.501Z,6.50
2023-03-23T20:49:44.014Z,6.00
2023-03-23T20:52:40.639Z,6.97
2023-03-23T20:55:27.644Z,6.13
2023-03-23T20:58:14.649Z,6.40
2023-03-23T21:01:01.508Z,7.47
2023-03-23T21:03:52.198Z,5.73
2023-03-23T21:06:38.300Z,7.93
2023-03-23T21:09:25.667Z,5.13
2023-03-23T21:12:12.156Z,5.70
2023-03-23T21:14:59.884Z,5.67
2023-03-23T21:17:46.802Z,5.87
2023-03-23T21:20:34.937Z,6.40
2023-03-23T21:23:21.247Z,6.20
2023-03-23T21:26:09.634Z,5.00
2023-03-23T21:28:59.995Z,5.67
2023-03-23T21:31:48.595Z,6.30
2023-03-23T21:34:38.700Z,5.83
2023-03-23T21:37:26.608Z,5.90
2023-03-23T21:40:14.417Z,6.33
2023-03-23T21:43:01.656Z,6.53
2023-03-23T21:45:48.217Z,6.03
2023-03-23T21:48:34.947Z,6.37
2023-03-23T21:51:24.831Z,7.70
2023-03-23T21:54:12.764Z,7.63
2023-03-23T21:56:59.160Z,7.23
2023-03-23T21:59:45.810Z,6.97
2023-03-23T22:02:32.032Z,6.27
2023-03-23T22:05:18.426Z,6.13
2023-03-23T22:08:04.850Z,5.83
2023-03-23T22:11:00.446Z,6.60
2023-03-23T22:13:49.011Z,5.83
2023-03-23T22:16:35.761Z,6.77
2023-03-23T22:19:22.376Z,6.47
2023-03-23T22:22:08.527Z,4.83
2023-03-23T22:24:54.716Z,6.73
2023-03-23T22:27:42.910Z,6.70
2023-03-23T22:30:29.862Z,6.30
2023-03-23T22:33:17.710Z,7.57
2023-03-23T22:36:06.591Z,7.73
2023-03-23T22:38:53.350Z,7.97
2023-03-23T22:41:40.782Z,7.50
2023-03-23T22:44:28.852Z,8.37
2023-03-23T22:47:15.038Z,7.43
2023-03-23T22:50:01.298Z,6.30
2023-03-23T22:52:47.777Z,6.73
2023-03-23T22:55:33.813Z,6.00
2023-03-23T22:58:20.334Z,6.20
2023-03-23T23:01:09.442Z,5.00
2023-03-23T23:03:55.928Z,5.50
2023-03-23T23:06:42.612Z,5.23
2023-03-23T23:09:28.861Z,4.63
2023-03-23T23:12:15.516Z,5.47
2023-03-23T23:15:02.581Z,5.00
2023-03-23T23:17:50.252Z,4.70
2023-03-23T23:20:36.967Z,5.20
2023-03-23T23:23:23.733Z,5.10
2023-03-23T23:26:10.381Z,4.87
2023-03-23T23:28:56.898Z,4.30
2023-03-23T23:31:43.294Z,4.40
2023-03-23T23:34:30.884Z,4.70
2023-03-23T23:37:17.256Z,5.10
2023-03-23T23:40:06.569Z,4.77
2023-03-23T23:42:53.090Z,5.60
2023-03-23T23:45:39.384Z,4.80
2023-03-23T23:48:25.531Z,5.90
2023-03-23T23:51:15.358Z,5.70
2023-03-23T23:54:01.937Z,5.00
2023-03-23T23:56:48.947Z,4.70
2023-03-23T23:59:36.106Z,4.80
